createdAt,value
2022-09-23T00:01:22.644Z,84.60
2022-09-23T00:03:49.185Z,84.38
2022-09-23T00:06:15.450Z,84.45
2022-09-23T00:08:41.708Z,84.97
2022-09-23T00:11:07.963Z,84.86
2022-09-23T00:13:34.159Z,84.64
2022-09-23T00:16:00.347Z,85.68
2022-09-23T00:18:26.528Z,85.76
2022-09-23T00:20:52.814Z,86.10
2022-09-23T00:23:19.015Z,85.61
2022-09-23T00:25:45.263Z,85.71
2022-09-23T00:28:11.453Z,86.18
2022-09-23T00:30:37.731Z,87.09
2022-09-23T00:33:03.937Z,86.21
2022-09-23T00:35:30.134Z,85.57
2022-09-23T00:37:56.330Z,85.42
2022-09-23T00:40:22.587Z,85.04
2022-09-23T00:42:48.872Z,85.20
2022-09-23T00:45:15.128Z,84.95
2022-09-23T00:47:41.344Z,84.96
2022-09-23T00:50:08.861Z,85.17
2022-09-23T00:52:35.116Z,85.30
2022-09-23T00:55:01.342Z,85.21
2022-09-23T00:57:27.594Z,85.74
2022-09-23T00:59:53.839Z,85.43
2022-09-23T01:02:21.083Z,85.99
2022-09-23T01:04:47.564Z,86.01
2022-09-23T01:07:13.748Z,85.61
2022-09-23T01:09:39.926Z,85.19
2022-09-23T01:12:06.113Z,85.18
2022-09-23T01:14:32.442Z,85.74
2022-09-23T01:16:58.775Z,85.92
2022-09-23T01:19:25.036Z,86.77
2022-09-23T01:21:51.297Z,86.33
2022-09-23T01:24:17.478Z,86.45
2022-09-23T01:26:43.678Z,86.34
2022-09-23T01:29:09.854Z,86.93
2022-09-23T01:31:36.255Z,86.45
2022-09-23T01:34:02.444Z,86.42
2022-09-23T01:36:28.650Z,86.33
2022-09-23T01:38:55.341Z,86.40
2022-09-23T01:41:21.514Z,86.33
2022-09-23T01:43:47.713Z,86.40
2022-09-23T01:46:13.903Z,86.33
2022-09-23T01:48:40.136Z,86.24
2022-09-23T01:51:06.360Z,86.99
2022-09-23T01:53:32.915Z,86.99
2022-09-23T01:56:00.080Z,87.74
2022-09-23T01:58:26.262Z,87.99
2022-09-23T02:00:52.508Z,87.45
2022-09-23T02:03:18.760Z,87.33
2022-09-23T02:05:44.950Z,87.27
2022-09-23T02:08:11.139Z,86.99
2022-09-23T02:10:37.364Z,86.96
2022-09-23T02:13:05.360Z,86.70
2022-09-23T02:15:31.641Z,86.28
2022-09-23T02:17:58.786Z,86.02
2022-09-23T02:20:24.981Z,86.63
2022-09-23T02:22:51.164Z,86.70
2022-09-23T02:25:17.465Z,86.98
2022-09-23T02:27:43.694Z,87.42
2022-09-23T02:30:09.906Z,86.99
2022-09-23T02:32:36.095Z,86.83
2022-09-23T02:35:02.290Z,87.30
2022-09-23T02:37:28.715Z,87.03
2022-09-23T02:39:54.985Z,87.27
2022-09-23T02:42:21.168Z,87.47
2022-09-23T02:44:47.365Z,87.55
2022-09-23T02:47:13.552Z,87.50
2022-09-23T02:49:39.764Z,87.52
2022-09-23T02:52:07.538Z,87.13
2022-09-23T02:54:33.819Z,87.33
2022-09-23T02:57:00.835Z,86.60
2022-09-23T02:59:27.031Z,87.27
2022-09-23T03:01:54.180Z,87.28
2022-09-23T03:04:20.423Z,87.16
2022-09-23T03:06:46.598Z,86.79
2022-09-23T03:09:12.779Z,86.87
2022-09-23T03:11:38.953Z,87.20
2022-09-23T03:14:06.623Z,87.15
2022-09-23T03:16:32.970Z,87.14
2022-09-23T03:18:59.245Z,87.01
2022-09-23T03:21:25.429Z,87.36
2022-09-23T03:23:51.636Z,87.58
2022-09-23T03:26:17.821Z,87.32
2022-09-23T03:28:44.020Z,87.77
2022-09-23T03:31:10.300Z,87.95
2022-09-23T03:33:36.495Z,88.05
2022-09-23T03:36:21.465Z,87.31
2022-09-23T03:38:47.665Z,87.15
2022-09-23T03:41:16.586Z,87.17
2022-09-23T03:43:42.898Z,86.63
2022-09-23T03:46:09.113Z,87.06
2022-09-23T03:48:35.334Z,86.81
2022-09-23T03:51:01.526Z,86.82
2022-09-23T03:53:27.716Z,86.81
2022-09-23T03:55:53.894Z,86.95
2022-09-23T03:58:20.098Z,86.87
2022-09-23T04:00:46.628Z,87.45
2022-09-23T04:03:12.912Z,87.54
2022-09-23T04:05:39.107Z,88.01
2022-09-23T04:08:05.480Z,88.39
2022-09-23T04:10:31.668Z,88.39
2022-09-23T04:12:57.862Z,87.92
2022-09-23T04:15:24.088Z,88.03
2022-09-23T04:17:50.295Z,88.40
2022-09-23T04:20:17.210Z,89.66
2022-09-23T04:22:43.386Z,89.70
2022-09-23T04:25:09.600Z,89.63
2022-09-23T04:27:37.875Z,90.03
2022-09-23T04:30:05.094Z,89.38
2022-09-23T04:32:31.721Z,88.78
2022-09-23T04:34:57.921Z,88.42
2022-09-23T04:37:24.108Z,88.33
2022-09-23T04:39:50.379Z,88.38
2022-09-23T04:42:16.585Z,88.53
2022-09-23T04:44:42.927Z,88.56
2022-09-23T04:47:09.148Z,88.42
2022-09-23T04:49:35.354Z,88.62
2022-09-23T04:52:02.702Z,88.42
2022-09-23T04:54:29.436Z,88.27
2022-09-23T04:56:55.649Z,88.27
2022-09-23T04:59:21.836Z,88.89
2022-09-23T05:01:48.122Z,89.01
2022-09-23T05:04:14.764Z,89.59
2022-09-23T05:06:43.828Z,90.64
2022-09-23T05:09:10.135Z,91.27
2022-09-23T05:11:36.325Z,90.73
2022-09-23T05:14:02.511Z,90.88
2022-09-23T05:16:29.355Z,91.47
2022-09-23T05:18:55.759Z,90.70
2022-09-23T05:21:21.967Z,90.90
2022-09-23T05:23:48.168Z,91.24
2022-09-23T05:26:14.343Z,92.03
2022-09-23T05:28:40.543Z,91.93
2022-09-23T05:31:06.773Z,91.44
2022-09-23T05:33:33.032Z,90.79
2022-09-23T05:35:59.234Z,90.34
2022-09-23T05:38:25.412Z,90.19
2022-09-23T05:40:51.701Z,90.52
2022-09-23T05:43:17.927Z,90.37
2022-09-23T05:45:44.158Z,90.43
2022-09-23T05:48:10.348Z,90.15
2022-09-23T05:50:36.542Z,90.28
2022-09-23T05:53:02.731Z,90.43
2022-09-23T05:55:28.951Z,90.64
2022-09-23T05:57:55.163Z,90.41
2022-09-23T06:00:21.393Z,90.65
2022-09-23T06:02:48.645Z,90.73
2022-09-23T06:05:16.183Z,91.17
2022-09-23T06:07:42.616Z,90.81
2022-09-23T06:10:08.798Z,90.82
2022-09-23T06:12:35.785Z,90.53
2022-09-23T06:15:01.992Z,89.97
2022-09-23T06:17:28.170Z,90.15
2022-09-23T06:19:54.352Z,90.78
2022-09-23T06:22:20.556Z,90.77
2022-09-23T06:24:46.732Z,90.27
2022-09-23T06:27:13.347Z,89.92
2022-09-23T06:29:39.952Z,90.29
2022-09-23T06:32:06.286Z,90.30
2022-09-23T06:34:42.116Z,90.12
2022-09-23T06:37:19.768Z,89.36
2022-09-23T06:39:46.776Z,88.76
2022-09-23T06:42:13.443Z,88.59
2022-09-23T06:44:39.649Z,88.75
2022-09-23T06:47:05.870Z,87.72
2022-09-23T06:49:32.065Z,88.15
2022-09-23T06:51:58.295Z,88.07
2022-09-23T06:54:26.027Z,88.03
2022-09-23T06:56:52.309Z,87.25
2022-09-23T06:59:18.549Z,87.39
2022-09-23T07:01:45.999Z,86.56
2022-09-23T07:04:12.321Z,86.05
2022-09-23T07:06:38.586Z,85.80
2022-09-23T07:09:04.875Z,86.48
2022-09-23T07:11:31.163Z,85.89
2022-09-23T07:13:57.416Z,85.10
2022-09-23T07:16:23.688Z,83.99
2022-09-23T07:18:49.993Z,84.79
2022-09-23T07:21:16.372Z,84.01
2022-09-23T07:23:42.636Z,83.25
2022-09-23T07:26:08.921Z,83.42
2022-09-23T07:28:36.339Z,82.42
2022-09-23T07:31:03.021Z,81.26
2022-09-23T07:33:33.413Z,81.53
2022-09-23T07:35:59.983Z,80.42
2022-09-23T07:38:30.003Z,79.59
2022-09-23T07:40:56.555Z,80.28
2022-09-23T07:43:22.798Z,79.34
2022-09-23T07:45:49.054Z,80.06
2022-09-23T07:48:15.319Z,79.86
2022-09-23T07:50:41.592Z,79.08
2022-09-23T07:53:08.548Z,79.10
2022-09-23T07:55:35.046Z,79.14
2022-09-23T07:58:01.301Z,78.14
2022-09-23T08:00:27.583Z,78.53
2022-09-23T08:02:54.044Z,77.75
2022-09-23T08:05:20.484Z,77.49
2022-09-23T08:07:48.436Z,76.58
2022-09-23T08:10:19.030Z,76.62
2022-09-23T08:12:46.370Z,76.44
2022-09-23T08:15:12.642Z,75.74
2022-09-23T08:17:38.897Z,75.75
2022-09-23T08:20:05.158Z,74.40
2022-09-23T08:22:31.413Z,74.42
2022-09-23T08:24:58.346Z,74.00
2022-09-23T08:27:24.614Z,73.02
2022-09-23T08:29:50.873Z,71.72
2022-09-23T08:32:17.115Z,72.62
2022-09-23T08:34:43.889Z,72.70
2022-09-23T08:37:10.854Z,72.17
2022-09-23T08:39:37.112Z,70.79
2022-09-23T08:42:03.359Z,69.82
2022-09-23T08:44:29.630Z,70.29
2022-09-23T08:46:55.944Z,70.50
2022-09-23T08:49:22.427Z,70.21
2022-09-23T08:51:48.686Z,69.85
2022-09-23T08:54:14.939Z,69.50
2022-09-23T08:56:42.178Z,69.00
2022-09-23T08:59:08.489Z,68.64
2022-09-23T09:01:34.976Z,68.05
2022-09-23T09:04:01.315Z,68.59
2022-09-23T09:06:27.700Z,68.01
2022-09-23T09:08:53.953Z,69.02
2022-09-23T09:11:20.219Z,68.12
2022-09-23T09:13:48.825Z,66.47
2022-09-23T09:16:15.132Z,66.93
2022-09-23T09:18:43.288Z,67.78
2022-09-23T09:21:09.871Z,67.95
2022-09-23T09:23:36.151Z,68.35
2022-09-23T09:26:02.692Z,66.25
2022-09-23T09:28:31.066Z,66.81
2022-09-23T09:30:57.504Z,67.07
2022-09-23T09:33:23.811Z,65.23
2022-09-23T09:35:50.342Z,66.01
2022-09-23T09:38:16.606Z,64.29
2022-09-23T09:40:43.055Z,65.14
2022-09-23T09:43:09.383Z,62.46
2022-09-23T09:45:36.020Z,63.05
2022-09-23T09:48:03.377Z,59.89
2022-09-23T09:50:32.846Z,60.26
2022-09-23T09:52:59.082Z,60.36
2022-09-23T09:55:25.386Z,57.50
2022-09-23T09:57:52.103Z,58.19
2022-09-23T10:00:18.863Z,58.49
2022-09-23T10:02:45.207Z,58.19
2022-09-23T10:05:11.461Z,54.66
2022-09-23T10:07:37.716Z,51.55
2022-09-23T10:10:28.867Z,53.13
2022-09-23T10:12:50.238Z,52.73
2022-09-23T10:15:16.496Z,55.03
2022-09-23T10:17:42.764Z,53.51
2022-09-23T10:20:09.016Z,54.73
2022-09-23T10:22:35.291Z,55.27
2022-09-23T10:25:03.091Z,55.14
2022-09-23T10:27:31.264Z,54.29
2022-09-23T10:29:57.569Z,52.64
2022-09-23T10:32:25.448Z,53.82
2022-09-23T10:34:51.881Z,52.81
2022-09-23T10:37:18.143Z,49.61
2022-09-23T10:40:02.925Z,49.70
2022-09-23T10:42:47.611Z,48.09
2022-09-23T10:45:32.512Z,50.38
2022-09-23T10:47:58.869Z,51.87
2022-09-23T10:50:25.293Z,52.00
2022-09-23T10:52:51.562Z,54.43
2022-09-23T10:55:17.857Z,53.34
2022-09-23T10:57:44.719Z,50.62
2022-09-23T11:00:11.112Z,53.10
2022-09-23T11:02:37.845Z,51.25
2022-09-23T11:05:04.659Z,51.92
2022-09-23T11:07:37.318Z,50.49
2022-09-23T11:10:03.738Z,51.20
2022-09-23T11:12:31.132Z,49.84
2022-09-23T11:14:57.414Z,50.64
2022-09-23T11:17:24.372Z,48.93
2022-09-23T11:19:50.625Z,48.02
2022-09-23T11:22:16.935Z,46.67
2022-09-23T11:24:47.474Z,45.78
2022-09-23T11:27:14.280Z,47.42
2022-09-23T11:29:42.483Z,45.37
2022-09-23T11:32:08.812Z,47.46
2022-09-23T11:34:35.063Z,46.75
2022-09-23T11:37:02.139Z,47.63
2022-09-23T11:39:28.362Z,47.82
2022-09-23T11:41:54.621Z,47.36
2022-09-23T11:44:20.899Z,49.70
2022-09-23T11:46:47.165Z,48.60
2022-09-23T11:49:15.444Z,47.91
2022-09-23T11:51:41.728Z,46.71
2022-09-23T11:54:09.228Z,45.09
2022-09-23T11:56:36.923Z,46.45
2022-09-23T11:59:04.768Z,48.61
2022-09-23T12:01:37.072Z,49.80
2022-09-23T12:04:14.047Z,46.19
2022-09-23T12:06:44.477Z,48.83
2022-09-23T12:09:10.730Z,46.60
2022-09-23T12:11:36.996Z,47.42
2022-09-23T12:14:03.336Z,45.76
2022-09-23T12:16:29.766Z,44.63
2022-09-23T12:18:56.035Z,45.79
2022-09-23T12:21:48.571Z,46.84
2022-09-23T12:24:09.406Z,45.30
2022-09-23T12:26:35.685Z,44.97
2022-09-23T12:29:01.935Z,45.36
2022-09-23T12:31:31.075Z,46.18
2022-09-23T12:33:57.776Z,44.47
2022-09-23T12:36:24.055Z,46.88
2022-09-23T12:38:50.357Z,47.34
2022-09-23T12:41:18.069Z,46.58
2022-09-23T12:43:46.728Z,46.56
2022-09-23T12:46:16.017Z,45.58
2022-09-23T12:48:42.322Z,46.63
2022-09-23T12:51:08.589Z,45.29
2022-09-23T12:53:34.910Z,46.06
2022-09-23T12:56:01.297Z,45.50
2022-09-23T12:58:27.616Z,47.14
2022-09-23T13:00:54.038Z,47.58
2022-09-23T13:03:39.020Z,47.44
2022-09-23T13:06:23.807Z,47.26
2022-09-23T13:08:50.066Z,46.25
2022-09-23T13:11:16.328Z,46.80
2022-09-23T13:13:42.731Z,46.60
2022-09-23T13:16:09.036Z,46.62
2022-09-23T13:18:35.344Z,46.24
2022-09-23T13:21:01.711Z,45.40
2022-09-23T13:23:28.028Z,46.06
2022-09-23T13:25:54.311Z,45.85
2022-09-23T13:28:20.574Z,45.86
2022-09-23T13:30:46.826Z,46.28
2022-09-23T13:33:13.076Z,45.81
2022-09-23T13:35:39.336Z,46.05
2022-09-23T13:38:05.600Z,46.56
2022-09-23T13:40:31.927Z,47.33
2022-09-23T13:42:58.388Z,46.41
2022-09-23T13:45:24.831Z,45.99
2022-09-23T13:47:51.086Z,47.10
2022-09-23T13:50:17.522Z,46.71
2022-09-23T13:52:43.775Z,45.55
2022-09-23T13:55:10.032Z,46.88
2022-09-23T13:57:36.817Z,47.97
2022-09-23T14:00:03.552Z,46.67
2022-09-23T14:02:30.148Z,47.34
2022-09-23T14:04:56.418Z,48.04
2022-09-23T14:07:22.680Z,48.04
2022-09-23T14:09:48.947Z,48.03
2022-09-23T14:12:15.246Z,48.45
2022-09-23T14:14:41.852Z,48.35
2022-09-23T14:17:08.129Z,47.62
2022-09-23T14:19:34.488Z,47.98
2022-09-23T14:22:00.939Z,47.31
2022-09-23T14:24:27.204Z,47.24
2022-09-23T14:26:53.479Z,48.68
2022-09-23T14:29:19.734Z,47.76
2022-09-23T14:31:56.573Z,48.81
2022-09-23T14:34:23.150Z,48.28
2022-09-23T14:37:08.328Z,49.34
2022-09-23T14:39:34.590Z,49.28
2022-09-23T14:42:00.889Z,48.88
2022-09-23T14:44:27.996Z,46.99
2022-09-23T14:46:56.447Z,48.01
2022-09-23T14:49:22.691Z,47.75
2022-09-23T14:51:48.979Z,47.30
2022-09-23T14:54:15.364Z,47.75
2022-09-23T14:56:41.733Z,47.84
2022-09-23T14:59:08.062Z,47.99
2022-09-23T15:01:34.511Z,48.39
2022-09-23T15:04:01.521Z,47.10
2022-09-23T15:06:27.768Z,48.52
2022-09-23T15:08:54.031Z,48.40
2022-09-23T15:11:20.290Z,49.26
2022-09-23T15:13:46.848Z,49.57
2022-09-23T15:16:13.949Z,49.46
2022-09-23T15:18:41.083Z,49.31
2022-09-23T15:21:07.293Z,49.15
2022-09-23T15:23:34.208Z,50.08
2022-09-23T15:26:00.606Z,49.81
2022-09-23T15:28:27.111Z,49.96
2022-09-23T15:30:53.419Z,51.27
2022-09-23T15:33:21.892Z,52.11
2022-09-23T15:35:48.411Z,51.11
2022-09-23T15:38:14.709Z,51.58
2022-09-23T15:40:41.535Z,55.14
2022-09-23T15:43:07.857Z,54.00
2022-09-23T15:45:34.308Z,53.26
2022-09-23T15:48:00.777Z,54.19
2022-09-23T15:50:27.048Z,55.48
2022-09-23T15:52:53.321Z,55.73
2022-09-23T15:55:22.521Z,54.15
2022-09-23T15:57:48.770Z,53.97
2022-09-23T16:00:15.854Z,55.95
2022-09-23T16:02:42.254Z,55.12
2022-09-23T16:05:08.535Z,55.44
2022-09-23T16:07:36.239Z,55.14
2022-09-23T16:10:02.546Z,56.02
2022-09-23T16:12:30.110Z,55.47
2022-09-23T16:14:56.417Z,55.07
2022-09-23T16:17:23.111Z,55.33
2022-09-23T16:19:49.380Z,56.24
2022-09-23T16:22:15.883Z,56.98
2022-09-23T16:24:42.151Z,56.34
2022-09-23T16:27:09.266Z,55.41
2022-09-23T16:29:35.564Z,55.87
2022-09-23T16:32:02.150Z,56.51
2022-09-23T16:34:28.675Z,56.41
2022-09-23T16:36:55.071Z,57.13
2022-09-23T16:39:22.747Z,57.55
2022-09-23T16:41:49.798Z,56.63
2022-09-23T16:44:16.410Z,57.85
2022-09-23T16:46:42.802Z,58.64
2022-09-23T16:49:11.916Z,60.25
2022-09-23T16:51:38.599Z,61.01
2022-09-23T16:54:06.116Z,61.55
2022-09-23T16:56:32.384Z,61.44
2022-09-23T16:58:58.644Z,61.18
2022-09-23T17:01:43.723Z,61.65
2022-09-23T17:04:10.583Z,60.96
2022-09-23T17:06:36.916Z,61.92
2022-09-23T17:09:03.223Z,60.75
2022-09-23T17:11:33.466Z,60.99
2022-09-23T17:14:00.802Z,62.30
2022-09-23T17:16:27.149Z,62.87
2022-09-23T17:18:55.420Z,63.56
2022-09-23T17:21:21.698Z,65.17
2022-09-23T17:23:47.956Z,63.43
2022-09-23T17:26:15.056Z,64.35
2022-09-23T17:28:41.277Z,64.38
2022-09-23T17:31:08.528Z,63.65
2022-09-23T17:33:37.767Z,63.83
2022-09-23T17:36:04.394Z,64.62
2022-09-23T17:38:33.675Z,64.64
2022-09-23T17:41:01.001Z,63.76
2022-09-23T17:43:27.607Z,62.62
2022-09-23T17:45:54.370Z,62.72
2022-09-23T17:48:21.713Z,63.59
2022-09-23T17:50:48.303Z,63.90
2022-09-23T17:53:16.739Z,63.84
2022-09-23T17:55:43.000Z,63.55
2022-09-23T17:58:09.251Z,63.12
2022-09-23T18:00:35.505Z,63.24
2022-09-23T18:03:01.828Z,62.27
2022-09-23T18:05:28.089Z,63.63
2022-09-23T18:07:54.353Z,62.91
2022-09-23T18:10:20.633Z,62.91
2022-09-23T18:12:46.908Z,64.22
2022-09-23T18:15:16.930Z,65.01
2022-09-23T18:17:45.688Z,64.69
2022-09-23T18:20:11.951Z,64.19
2022-09-23T18:22:38.208Z,63.41
2022-09-23T18:25:22.691Z,63.30
2022-09-23T18:27:50.701Z,63.71
2022-09-23T18:30:17.056Z,64.14
2022-09-23T18:32:43.531Z,64.54
2022-09-23T18:35:09.836Z,64.78
2022-09-23T18:37:36.087Z,64.80
2022-09-23T18:40:03.313Z,64.89
2022-09-23T18:42:29.574Z,65.14
2022-09-23T18:44:56.514Z,64.89
2022-09-23T18:47:41.367Z,64.70
2022-09-23T18:50:26.242Z,65.58
2022-09-23T18:52:53.006Z,64.81
2022-09-23T18:55:19.255Z,64.83
2022-09-23T18:57:47.695Z,65.25
2022-09-23T19:00:13.952Z,65.68
2022-09-23T19:02:40.328Z,64.93
2022-09-23T19:05:06.580Z,65.26
2022-09-23T19:07:32.909Z,66.05
2022-09-23T19:09:59.151Z,65.32
2022-09-23T19:12:25.394Z,66.52
2022-09-23T19:14:51.661Z,67.29
2022-09-23T19:17:17.916Z,67.35
2022-09-23T19:19:45.972Z,67.81
2022-09-23T19:22:13.634Z,68.78
2022-09-23T19:24:39.920Z,69.50
2022-09-23T19:27:06.179Z,69.14
2022-09-23T19:29:33.270Z,70.02
2022-09-23T19:31:59.683Z,69.82
2022-09-23T19:34:29.042Z,69.58
2022-09-23T19:36:57.182Z,69.34
2022-09-23T19:39:23.464Z,69.36
2022-09-23T19:41:49.710Z,70.13
2022-09-23T19:44:16.417Z,69.62
2022-09-23T19:46:44.976Z,70.41
2022-09-23T19:49:11.307Z,70.71
2022-09-23T19:51:38.586Z,70.12
2022-09-23T19:54:04.843Z,70.81
2022-09-23T19:56:31.828Z,71.29
2022-09-23T19:58:58.322Z,71.52
2022-09-23T20:01:24.614Z,71.78
2022-09-23T20:03:50.933Z,71.63
2022-09-23T20:06:17.182Z,71.11
2022-09-23T20:08:43.610Z,69.85
2022-09-23T20:11:11.031Z,69.15
2022-09-23T20:13:37.585Z,68.95
2022-09-23T20:16:08.849Z,69.05
2022-09-23T20:18:35.151Z,68.47
2022-09-23T20:21:01.441Z,67.98
2022-09-23T20:23:27.691Z,68.04
2022-09-23T20:26:12.452Z,67.78
2022-09-23T20:28:38.708Z,68.19
2022-09-23T20:31:05.034Z,68.43
2022-09-23T20:33:31.313Z,67.88
2022-09-23T20:36:00.817Z,68.81
2022-09-23T20:38:27.073Z,69.07
2022-09-23T20:40:53.377Z,69.09
2022-09-23T20:43:20.122Z,70.09
2022-09-23T20:45:46.376Z,69.74
2022-09-23T20:48:12.673Z,69.89
2022-09-23T20:50:40.083Z,69.38
2022-09-23T20:53:07.107Z,69.39
2022-09-23T20:55:33.739Z,70.15
2022-09-23T20:58:01.682Z,70.58
2022-09-23T21:00:27.964Z,70.87
2022-09-23T21:02:54.258Z,71.55
2022-09-23T21:05:20.513Z,71.35
2022-09-23T21:07:46.790Z,71.56
2022-09-23T21:10:13.300Z,72.06
2022-09-23T21:12:39.551Z,71.23
2022-09-23T21:15:05.803Z,72.03
2022-09-23T21:17:33.484Z,70.74
2022-09-23T21:19:59.879Z,71.45
2022-09-23T21:22:26.242Z,71.09
2022-09-23T21:25:26.210Z,71.19
2022-09-23T21:27:39.270Z,70.75
2022-09-23T21:30:05.519Z,70.84
2022-09-23T21:32:31.771Z,71.46
2022-09-23T21:34:58.043Z,70.85
2022-09-23T21:37:26.008Z,71.36
2022-09-23T21:40:11.223Z,70.48
2022-09-23T21:42:37.544Z,70.56
2022-09-23T21:45:05.201Z,70.57
2022-09-23T21:47:32.292Z,69.96
2022-09-23T21:49:58.549Z,70.33
2022-09-23T21:52:24.809Z,70.30
2022-09-23T21:54:51.066Z,70.27
2022-09-23T21:57:17.315Z,70.62
2022-09-23T21:59:43.567Z,70.75
2022-09-23T22:02:09.849Z,70.69
2022-09-23T22:04:36.251Z,70.89
2022-09-23T22:07:02.567Z,71.45
2022-09-23T22:09:28.861Z,72.22
2022-09-23T22:12:12.673Z,71.92
2022-09-23T22:14:39.057Z,71.57
2022-09-23T22:17:05.454Z,72.20
2022-09-23T22:19:35.328Z,72.96
2022-09-23T22:22:01.855Z,72.41
2022-09-23T22:24:28.090Z,73.40
2022-09-23T22:26:54.344Z,72.71
2022-09-23T22:29:39.083Z,73.52
2022-09-23T22:32:23.952Z,73.79
2022-09-23T22:34:51.855Z,73.48
2022-09-23T22:37:18.681Z,73.47
2022-09-23T22:39:44.947Z,73.24
2022-09-23T22:42:13.041Z,72.10
2022-09-23T22:44:39.209Z,72.09
2022-09-23T22:47:05.567Z,72.20
2022-09-23T22:49:32.167Z,72.34
2022-09-23T22:51:58.462Z,73.22
2022-09-23T22:54:24.780Z,73.11
2022-09-23T22:56:51.397Z,72.85
2022-09-23T22:59:17.682Z,72.13
2022-09-23T23:01:43.967Z,72.05
2022-09-23T23:04:10.409Z,71.84
2022-09-23T23:06:36.864Z,72.09
2022-09-23T23:09:03.492Z,70.77
2022-09-23T23:11:30.178Z,71.16
2022-09-23T23:13:56.620Z,70.86
2022-09-23T23:16:25.252Z,70.71
2022-09-23T23:18:51.591Z,70.90
2022-09-23T23:21:18.075Z,70.69
2022-09-23T23:23:44.323Z,71.61
2022-09-23T23:26:10.587Z,71.96
2022-09-23T23:28:36.847Z,72.24
2022-09-23T23:31:03.263Z,72.13
2022-09-23T23:33:29.540Z,73.14
2022-09-23T23:35:55.780Z,73.51
2022-09-23T23:38:22.024Z,73.13
2022-09-23T23:40:50.024Z,74.16
2022-09-23T23:43:16.260Z,73.55
2022-09-23T23:45:43.523Z,73.17
2022-09-23T23:48:09.777Z,73.66
2022-09-23T23:50:36.225Z,73.05
2022-09-23T23:53:05.216Z,74.14
2022-09-23T23:55:31.477Z,73.87
2022-09-23T23:58:03.054Z,74.33
